sensor_id;sensor_type;location;lat;lon;timestamp;P1;durP1;ratioP1;P2;durP2;ratioP2
9166;SDS011;4618;48.818;9.088;2023-09-18T00:01:39;4.63;;;2.73;;
9166;SDS011;4618;48.818;9.088;2023-09-18T00:04:05;2.43;;;2.30;;
9166;SDS011;4618;48.818;9.088;2023-09-18T00:06:32;6.43;;;3.20;;
9166;SDS011;4618;48.818;9.088;2023-09-18T00:08:57;2.37;;;2.17;;
9166;SDS011;4618;48.818;9.088;2023-09-18T00:11:23;2.97;;;2.57;;
9166;SDS011;4618;48.818;9.088;2023-09-18T00:13:49;3.33;;;2.97;;
9166;SDS011;4618;48.818;9.088;2023-09-18T00:16:14;2.60;;;2.40;;
9166;SDS011;4618;48.818;9.088;2023-09-18T00:18:40;4.00;;;2.57;;
9166;SDS011;4618;48.818;9.088;2023-09-18T00:21:07;2.40;;;2.20;;
9166;SDS011;4618;48.818;9.088;2023-09-18T00:23:35;4.47;;;2.43;;
9166;SDS011;4618;48.818;9.088;2023-09-18T00:26:01;2.33;;;2.13;;
9166;SDS011;4618;48.818;9.088;2023-09-18T00:28:26;4.20;;;2.40;;
9166;SDS011;4618;48.818;9.088;2023-09-18T00:30:52;2.70;;;2.40;;
9166;SDS011;4618;48.818;9.088;2023-09-18T00:33:18;2.47;;;2.20;;
9166;SDS011;4618;48.818;9.088;2023-09-18T00:35:50;3.27;;;2.70;;
9166;SDS011;4618;48.818;9.088;2023-09-18T00:38:16;5.07;;;2.50;;
9166;SDS011;4618;48.818;9.088;2023-09-18T00:40:43;2.70;;;2.37;;
9166;SDS011;4618;48.818;9.088;2023-09-18T00:43:09;5.77;;;2.87;;
9166;SDS011;4618;48.818;9.088;2023-09-18T00:45:36;3.03;;;2.80;;
9166;SDS011;4618;48.818;9.088;2023-09-18T00:48:06;3.80;;;2.73;;
9166;SDS011;4618;48.818;9.088;2023-09-18T00:50:31;2.60;;;2.40;;
9166;SDS011;4618;48.818;9.088;2023-09-18T00:52:58;3.30;;;2.53;;
9166;SDS011;4618;48.818;9.088;2023-09-18T00:55:26;2.87;;;2.60;;
9166;SDS011;4618;48.818;9.088;2023-09-18T00:57:54;5.27;;;2.70;;
9166;SDS011;4618;48.818;9.088;2023-09-18T01:00:20;3.40;;;2.43;;
9166;SDS011;4618;48.818;9.088;2023-09-18T01:02:50;3.77;;;2.57;;
9166;SDS011;4618;48.818;9.088;2023-09-18T01:05:15;3.50;;;2.40;;
9166;SDS011;4618;48.818;9.088;2023-09-18T01:07:42;3.47;;;2.50;;
9166;SDS011;4618;48.818;9.088;2023-09-18T01:10:09;3.07;;;2.40;;
9166;SDS011;4618;48.818;9.088;2023-09-18T01:12:48;3.00;;;2.70;;
9166;SDS011;4618;48.818;9.088;2023-09-18T01:15:21;3.00;;;2.40;;
9166;SDS011;4618;48.818;9.088;2023-09-18T01:17:52;2.97;;;2.73;;
9166;SDS011;4618;48.818;9.088;2023-09-18T01:20:18;3.03;;;2.40;;
9166;SDS011;4618;48.818;9.088;2023-09-18T01:22:43;3.23;;;2.60;;
9166;SDS011;4618;48.818;9.088;2023-09-18T01:25:09;4.90;;;2.70;;
9166;SDS011;4618;48.818;9.088;2023-09-18T01:27:35;4.30;;;2.93;;
9166;SDS011;4618;48.818;9.088;2023-09-18T01:30:00;3.00;;;2.60;;
9166;SDS011;4618;48.818;9.088;2023-09-18T01:32:28;2.80;;;2.60;;
9166;SDS011;4618;48.818;9.088;2023-09-18T01:34:57;3.47;;;2.53;;
9166;SDS011;4618;48.818;9.088;2023-09-18T01:37:28;2.67;;;2.30;;
9166;SDS011;4618;48.818;9.088;2023-09-18T01:39:55;4.43;;;2.83;;
9166;SDS011;4618;48.818;9.088;2023-09-18T01:42:24;3.97;;;2.50;;
9166;SDS011;4618;48.818;9.088;2023-09-18T01:44:54;2.73;;;2.53;;
9166;SDS011;4618;48.818;9.088;2023-09-18T01:47:20;3.47;;;2.17;;
9166;SDS011;4618;48.818;9.088;2023-09-18T01:49:48;3.57;;;2.20;;
9166;SDS011;4618;48.818;9.088;2023-09-18T01:52:14;4.37;;;2.00;;
9166;SDS011;4618;48.818;9.088;2023-09-18T01:54:40;2.90;;;1.97;;
9166;SDS011;4618;48.818;9.088;2023-09-18T01:57:06;2.73;;;2.03;;
9166;SDS011;4618;48.818;9.088;2023-09-18T01:59:32;3.80;;;2.10;;
9166;SDS011;4618;48.818;9.088;2023-09-18T02:01:58;6.90;;;2.50;;
9166;SDS011;4618;48.818;9.088;2023-09-18T02:04:25;10.70;;;2.93;;
9166;SDS011;4618;48.818;9.088;2023-09-18T02:06:52;5.07;;;2.33;;
9166;SDS011;4618;48.818;9.088;2023-09-18T02:09:18;8.30;;;2.83;;
9166;SDS011;4618;48.818;9.088;2023-09-18T02:11:44;8.13;;;2.87;;
9166;SDS011;4618;48.818;9.088;2023-09-18T02:14:12;9.93;;;2.90;;
9166;SDS011;4618;48.818;9.088;2023-09-18T02:16:40;11.43;;;3.00;;
9166;SDS011;4618;48.818;9.088;2023-09-18T02:19:07;10.37;;;2.67;;
9166;SDS011;4618;48.818;9.088;2023-09-18T02:21:34;9.53;;;2.77;;
9166;SDS011;4618;48.818;9.088;2023-09-18T02:24:00;8.67;;;2.90;;
9166;SDS011;4618;48.818;9.088;2023-09-18T02:26:26;7.73;;;3.20;;
9166;SDS011;4618;48.818;9.088;2023-09-18T02:28:53;8.87;;;3.23;;
9166;SDS011;4618;48.818;9.088;2023-09-18T02:31:19;10.50;;;2.80;;
9166;SDS011;4618;48.818;9.088;2023-09-18T02:33:45;7.47;;;2.60;;
9166;SDS011;4618;48.818;9.088;2023-09-18T02:36:12;9.20;;;3.13;;
9166;SDS011;4618;48.818;9.088;2023-09-18T02:38:40;7.37;;;2.80;;
9166;SDS011;4618;48.818;9.088;2023-09-18T02:41:06;4.47;;;2.67;;
9166;SDS011;4618;48.818;9.088;2023-09-18T02:43:32;10.33;;;3.00;;
9166;SDS011;4618;48.818;9.088;2023-09-18T02:45:57;8.87;;;2.77;;
9166;SDS011;4618;48.818;9.088;2023-09-18T02:48:23;10.97;;;2.70;;
9166;SDS011;4618;48.818;9.088;2023-09-18T02:50:49;8.23;;;2.87;;
9166;SDS011;4618;48.818;9.088;2023-09-18T02:53:19;8.43;;;2.90;;
9166;SDS011;4618;48.818;9.088;2023-09-18T02:55:52;5.30;;;2.37;;
9166;SDS011;4618;48.818;9.088;2023-09-18T02:58:19;5.00;;;2.60;;
9166;SDS011;4618;48.818;9.088;2023-09-18T03:00:49;10.73;;;3.00;;
9166;SDS011;4618;48.818;9.088;2023-09-18T03:03:15;4.37;;;2.70;;
9166;SDS011;4618;48.818;9.088;2023-09-18T03:05:42;11.83;;;3.70;;
9166;SDS011;4618;48.818;9.088;2023-09-18T03:08:09;7.83;;;3.50;;
9166;SDS011;4618;48.818;9.088;2023-09-18T03:10:36;9.10;;;3.40;;
9166;SDS011;4618;48.818;9.088;2023-09-18T03:13:06;8.33;;;2.90;;
9166;SDS011;4618;48.818;9.088;2023-09-18T03:15:32;8.50;;;3.00;;
9166;SDS011;4618;48.818;9.088;2023-09-18T03:17:59;10.50;;;2.63;;
9166;SDS011;4618;48.818;9.088;2023-09-18T03:20:28;6.93;;;2.53;;
9166;SDS011;4618;48.818;9.088;2023-09-18T03:22:55;7.37;;;2.83;;
9166;SDS011;4618;48.818;9.088;2023-09-18T03:25:25;7.27;;;2.70;;
9166;SDS011;4618;48.818;9.088;2023-09-18T03:27:52;9.17;;;3.03;;
9166;SDS011;4618;48.818;9.088;2023-09-18T03:30:19;6.77;;;3.03;;
9166;SDS011;4618;48.818;9.088;2023-09-18T03:32:46;3.87;;;2.70;;
9166;SDS011;4618;48.818;9.088;2023-09-18T03:35:13;8.47;;;2.93;;
9166;SDS011;4618;48.818;9.088;2023-09-18T03:37:45;8.10;;;3.17;;
9166;SDS011;4618;48.818;9.088;2023-09-18T03:40:16;6.77;;;3.37;;
9166;SDS011;4618;48.818;9.088;2023-09-18T03:42:43;6.70;;;3.40;;
9166;SDS011;4618;48.818;9.088;2023-09-18T03:45:08;8.93;;;2.63;;
9166;SDS011;4618;48.818;9.088;2023-09-18T03:47:35;10.47;;;2.90;;
9166;SDS011;4618;48.818;9.088;2023-09-18T03:50:02;10.67;;;2.87;;
9166;SDS011;4618;48.818;9.088;2023-09-18T03:52:28;10.20;;;2.70;;
9166;SDS011;4618;48.818;9.088;2023-09-18T03:54:54;5.30;;;2.47;;
9166;SDS011;4618;48.818;9.088;2023-09-18T03:57:19;7.63;;;2.57;;
9166;SDS011;4618;48.818;9.088;2023-09-18T03:59:45;6.70;;;3.00;;
9166;SDS011;4618;48.818;9.088;2023-09-18T04:02:10;6.67;;;2.60;;
9166;SDS011;4618;48.818;9.088;2023-09-18T04:04:36;5.33;;;2.63;;
9166;SDS011;4618;48.818;9.088;2023-09-18T04:07:05;6.70;;;2.50;;
9166;SDS011;4618;48.818;9.088;2023-09-18T04:09:31;9.17;;;2.93;;
9166;SDS011;4618;48.818;9.088;2023-09-18T04:11:57;6.93;;;2.63;;
9166;SDS011;4618;48.818;9.088;2023-09-18T04:14:23;6.10;;;2.70;;
9166;SDS011;4618;48.818;9.088;2023-09-18T04:16:48;6.83;;;2.90;;
9166;SDS011;4618;48.818;9.088;2023-09-18T04:19:14;9.63;;;2.83;;
9166;SDS011;4618;48.818;9.088;2023-09-18T04:21:39;7.93;;;2.60;;
9166;SDS011;4618;48.818;9.088;2023-09-18T04:24:05;8.90;;;3.20;;
9166;SDS011;4618;48.818;9.088;2023-09-18T04:26:31;6.67;;;3.13;;
9166;SDS011;4618;48.818;9.088;2023-09-18T04:28:58;10.63;;;3.67;;
9166;SDS011;4618;48.818;9.088;2023-09-18T04:31:23;12.63;;;3.93;;
9166;SDS011;4618;48.818;9.088;2023-09-18T04:33:49;10.23;;;3.70;;
9166;SDS011;4618;48.818;9.088;2023-09-18T04:36:15;10.47;;;4.10;;
9166;SDS011;4618;48.818;9.088;2023-09-18T04:38:40;9.43;;;3.60;;
9166;SDS011;4618;48.818;9.088;2023-09-18T04:41:06;8.10;;;3.47;;
9166;SDS011;4618;48.818;9.088;2023-09-18T04:43:36;10.00;;;4.00;;
9166;SDS011;4618;48.818;9.088;2023-09-18T04:46:03;8.97;;;3.70;;
9166;SDS011;4618;48.818;9.088;2023-09-18T04:48:30;11.67;;;3.63;;
9166;SDS011;4618;48.818;9.088;2023-09-18T04:50:56;9.63;;;3.43;;
9166;SDS011;4618;48.818;9.088;2023-09-18T04:53:22;7.97;;;3.60;;
9166;SDS011;4618;48.818;9.088;2023-09-18T04:55:48;10.73;;;3.20;;
9166;SDS011;4618;48.818;9.088;2023-09-18T04:58:15;8.63;;;3.20;;
9166;SDS011;4618;48.818;9.088;2023-09-18T05:00:41;9.30;;;3.07;;
9166;SDS011;4618;48.818;9.088;2023-09-18T05:03:07;6.03;;;3.30;;
9166;SDS011;4618;48.818;9.088;2023-09-18T05:05:33;11.33;;;3.13;;
9166;SDS011;4618;48.818;9.088;2023-09-18T05:08:00;7.80;;;3.30;;
9166;SDS011;4618;48.818;9.088;2023-09-18T05:10:28;12.77;;;3.43;;
9166;SDS011;4618;48.818;9.088;2023-09-18T05:12:54;9.90;;;3.23;;
9166;SDS011;4618;48.818;9.088;2023-09-18T05:15:23;8.53;;;2.90;;
9166;SDS011;4618;48.818;9.088;2023-09-18T05:17:51;11.50;;;3.70;;
9166;SDS011;4618;48.818;9.088;2023-09-18T05:20:20;6.83;;;3.07;;
9166;SDS011;4618;48.818;9.088;2023-09-18T05:22:49;6.03;;;2.90;;
9166;SDS011;4618;48.818;9.088;2023-09-18T05:25:15;5.87;;;3.10;;
9166;SDS011;4618;48.818;9.088;2023-09-18T05:27:41;9.50;;;3.10;;
9166;SDS011;4618;48.818;9.088;2023-09-18T05:30:13;6.23;;;2.77;;
9166;SDS011;4618;48.818;9.088;2023-09-18T05:32:41;5.93;;;3.00;;
9166;SDS011;4618;48.818;9.088;2023-09-18T05:35:08;7.87;;;3.07;;
9166;SDS011;4618;48.818;9.088;2023-09-18T05:37:36;9.23;;;2.87;;
9166;SDS011;4618;48.818;9.088;2023-09-18T05:40:04;7.03;;;2.90;;
9166;SDS011;4618;48.818;9.088;2023-09-18T05:42:36;6.10;;;2.70;;
9166;SDS011;4618;48.818;9.088;2023-09-18T05:45:08;9.27;;;3.17;;
9166;SDS011;4618;48.818;9.088;2023-09-18T05:47:35;10.93;;;2.53;;
9166;SDS011;4618;48.818;9.088;2023-09-18T05:50:04;7.63;;;2.50;;
9166;SDS011;4618;48.818;9.088;2023-09-18T05:52:41;7.10;;;2.50;;
9166;SDS011;4618;48.818;9.088;2023-09-18T05:55:11;7.47;;;2.63;;
9166;SDS011;4618;48.818;9.088;2023-09-18T05:57:38;5.77;;;2.43;;
9166;SDS011;4618;48.818;9.088;2023-09-18T06:00:04;8.60;;;2.27;;
9166;SDS011;4618;48.818;9.088;2023-09-18T06:02:30;5.80;;;2.20;;
9166;SDS011;4618;48.818;9.088;2023-09-18T06:04:56;5.87;;;2.30;;
9166;SDS011;4618;48.818;9.088;2023-09-18T06:07:25;6.47;;;2.23;;
9166;SDS011;4618;48.818;9.088;2023-09-18T06:09:55;6.73;;;2.17;;
9166;SDS011;4618;48.818;9.088;2023-09-18T06:12:21;11.07;;;2.43;;
9166;SDS011;4618;48.818;9.088;2023-09-18T06:14:47;4.53;;;2.10;;
9166;SDS011;4618;48.818;9.088;2023-09-18T06:17:13;5.37;;;1.90;;
9166;SDS011;4618;48.818;9.088;2023-09-18T06:19:40;6.43;;;2.10;;
9166;SDS011;4618;48.818;9.088;2023-09-18T06:22:06;5.93;;;1.60;;
9166;SDS011;4618;48.818;9.088;2023-09-18T06:24:32;5.57;;;2.00;;
9166;SDS011;4618;48.818;9.088;2023-09-18T06:26:58;3.77;;;1.80;;
9166;SDS011;4618;48.818;9.088;2023-09-18T06:29:24;6.53;;;2.00;;
9166;SDS011;4618;48.818;9.088;2023-09-18T06:31:50;5.57;;;1.90;;
9166;SDS011;4618;48.818;9.088;2023-09-18T06:34:16;6.73;;;1.50;;
9166;SDS011;4618;48.818;9.088;2023-09-18T06:36:41;6.63;;;1.73;;
9166;SDS011;4618;48.818;9.088;2023-09-18T06:39:07;6.30;;;1.60;;
9166;SDS011;4618;48.818;9.088;2023-09-18T06:41:32;4.63;;;1.80;;
9166;SDS011;4618;48.818;9.088;2023-09-18T06:43:58;5.03;;;1.47;;
9166;SDS011;4618;48.818;9.088;2023-09-18T06:46:27;4.63;;;1.70;;
9166;SDS011;4618;48.818;9.088;2023-09-18T06:48:53;5.20;;;1.83;;
9166;SDS011;4618;48.818;9.088;2023-09-18T06:51:19;4.10;;;1.53;;
9166;SDS011;4618;48.818;9.088;2023-09-18T06:53:44;6.90;;;1.73;;
9166;SDS011;4618;48.818;9.088;2023-09-18T06:56:10;5.17;;;2.17;;
9166;SDS011;4618;48.818;9.088;2023-09-18T06:58:37;4.10;;;1.90;;
9166;SDS011;4618;48.818;9.088;2023-09-18T07:01:03;5.27;;;1.70;;
9166;SDS011;4618;48.818;9.088;2023-09-18T07:03:31;11.37;;;1.37;;
9166;SDS011;4618;48.818;9.088;2023-09-18T07:06:01;6.73;;;1.50;;
9166;SDS011;4618;48.818;9.088;2023-09-18T07:08:29;3.83;;;1.10;;
9166;SDS011;4618;48.818;9.088;2023-09-18T07:10:55;3.97;;;1.17;;
9166;SDS011;4618;48.818;9.088;2023-09-18T07:13:20;4.50;;;1.40;;
9166;SDS011;4618;48.818;9.088;2023-09-18T07:15:46;4.17;;;1.20;;
9166;SDS011;4618;48.818;9.088;2023-09-18T07:18:12;4.70;;;1.33;;
9166;SDS011;4618;48.818;9.088;2023-09-18T07:20:40;7.30;;;1.27;;
9166;SDS011;4618;48.818;9.088;2023-09-18T07:23:06;4.53;;;1.13;;
9166;SDS011;4618;48.818;9.088;2023-09-18T07:25:32;4.30;;;1.30;;
9166;SDS011;4618;48.818;9.088;2023-09-18T07:27:57;8.07;;;1.40;;
9166;SDS011;4618;48.818;9.088;2023-09-18T07:30:23;2.33;;;1.13;;
9166;SDS011;4618;48.818;9.088;2023-09-18T07:32:52;5.97;;;1.10;;
9166;SDS011;4618;48.818;9.088;2023-09-18T07:35:24;4.77;;;0.90;;
9166;SDS011;4618;48.818;9.088;2023-09-18T07:37:49;4.50;;;0.87;;
9166;SDS011;4618;48.818;9.088;2023-09-18T07:40:15;2.47;;;0.80;;
9166;SDS011;4618;48.818;9.088;2023-09-18T07:42:41;3.93;;;0.93;;
9166;SDS011;4618;48.818;9.088;2023-09-18T07:45:09;3.70;;;0.87;;
9166;SDS011;4618;48.818;9.088;2023-09-18T07:47:35;3.53;;;0.80;;
9166;SDS011;4618;48.818;9.088;2023-09-18T07:50:00;2.67;;;0.60;;
9166;SDS011;4618;48.818;9.088;2023-09-18T07:52:26;2.10;;;0.83;;
9166;SDS011;4618;48.818;9.088;2023-09-18T07:54:52;2.70;;;0.80;;
9166;SDS011;4618;48.818;9.088;2023-09-18T07:57:17;1.80;;;0.73;;
9166;SDS011;4618;48.818;9.088;2023-09-18T07:59:44;1.07;;;0.63;;
9166;SDS011;4618;48.818;9.088;2023-09-18T08:02:11;2.90;;;0.90;;
9166;SDS011;4618;48.818;9.088;2023-09-18T08:04:36;4.03;;;0.70;;
9166;SDS011;4618;48.818;9.088;2023-09-18T08:07:02;1.30;;;0.60;;
9166;SDS011;4618;48.818;9.088;2023-09-18T08:09:30;3.33;;;0.70;;
9166;SDS011;4618;48.818;9.088;2023-09-18T08:11:56;2.80;;;0.60;;
9166;SDS011;4618;48.818;9.088;2023-09-18T08:14:22;3.43;;;0.67;;
9166;SDS011;4618;48.818;9.088;2023-09-18T08:16:47;3.20;;;0.70;;
9166;SDS011;4618;48.818;9.088;2023-09-18T08:19:16;5.80;;;0.80;;
9166;SDS011;4618;48.818;9.088;2023-09-18T08:21:42;5.60;;;1.00;;
9166;SDS011;4618;48.818;9.088;2023-09-18T08:24:07;2.20;;;0.60;;
9166;SDS011;4618;48.818;9.088;2023-09-18T08:26:33;1.53;;;0.70;;
9166;SDS011;4618;48.818;9.088;2023-09-18T08:28:59;2.33;;;0.70;;
9166;SDS011;4618;48.818;9.088;2023-09-18T08:31:24;1.23;;;0.50;;
9166;SDS011;4618;48.818;9.088;2023-09-18T08:33:52;1.37;;;0.60;;
9166;SDS011;4618;48.818;9.088;2023-09-18T08:36:18;3.00;;;0.77;;
9166;SDS011;4618;48.818;9.088;2023-09-18T08:38:43;1.63;;;0.80;;
9166;SDS011;4618;48.818;9.088;2023-09-18T08:41:11;2.73;;;0.70;;
9166;SDS011;4618;48.818;9.088;2023-09-18T08:43:38;2.20;;;0.73;;
9166;SDS011;4618;48.818;9.088;2023-09-18T08:46:07;4.33;;;1.20;;
9166;SDS011;4618;48.818;9.088;2023-09-18T08:48:34;2.43;;;0.80;;
9166;SDS011;4618;48.818;9.088;2023-09-18T08:51:02;1.30;;;0.70;;
9166;SDS011;4618;48.818;9.088;2023-09-18T08:53:30;2.80;;;0.77;;
9166;SDS011;4618;48.818;9.088;2023-09-18T08:55:57;3.03;;;0.83;;
9166;SDS011;4618;48.818;9.088;2023-09-18T08:58:27;4.43;;;0.70;;
9166;SDS011;4618;48.818;9.088;2023-09-18T09:00:56;3.00;;;0.90;;
9166;SDS011;4618;48.818;9.088;2023-09-18T09:03:22;2.13;;;0.87;;
9166;SDS011;4618;48.818;9.088;2023-09-18T09:05:49;1.73;;;0.67;;
9166;SDS011;4618;48.818;9.088;2023-09-18T09:08:15;4.17;;;0.80;;
9166;SDS011;4618;48.818;9.088;2023-09-18T09:10:41;1.40;;;0.70;;
9166;SDS011;4618;48.818;9.088;2023-09-18T09:13:07;2.37;;;0.80;;
9166;SDS011;4618;48.818;9.088;2023-09-18T09:15:46;2.37;;;1.10;;
9166;SDS011;4618;48.818;9.088;2023-09-18T09:18:13;3.43;;;0.90;;
9166;SDS011;4618;48.818;9.088;2023-09-18T09:20:52;2.67;;;0.83;;
9166;SDS011;4618;48.818;9.088;2023-09-18T09:23:18;3.40;;;1.07;;
9166;SDS011;4618;48.818;9.088;2023-09-18T09:25:44;3.77;;;1.27;;
9166;SDS011;4618;48.818;9.088;2023-09-18T09:28:11;2.53;;;1.00;;
9166;SDS011;4618;48.818;9.088;2023-09-18T09:30:37;3.67;;;1.13;;
9166;SDS011;4618;48.818;9.088;2023-09-18T09:33:03;3.27;;;1.20;;
9166;SDS011;4618;48.818;9.088;2023-09-18T09:35:33;4.70;;;1.13;;
9166;SDS011;4618;48.818;9.088;2023-09-18T09:38:00;5.33;;;1.47;;
9166;SDS011;4618;48.818;9.088;2023-09-18T09:40:27;2.70;;;1.20;;
9166;SDS011;4618;48.818;9.088;2023-09-18T09:42:55;3.17;;;1.23;;
9166;SDS011;4618;48.818;9.088;2023-09-18T09:45:26;4.83;;;1.70;;
9166;SDS011;4618;48.818;9.088;2023-09-18T09:47:54;4.67;;;1.40;;
9166;SDS011;4618;48.818;9.088;2023-09-18T09:50:20;3.97;;;1.53;;
9166;SDS011;4618;48.818;9.088;2023-09-18T09:52:47;4.23;;;1.20;;
9166;SDS011;4618;48.818;9.088;2023-09-18T09:57:54;2.73;;;1.00;;
9166;SDS011;4618;48.818;9.088;2023-09-18T10:00:36;3.07;;;1.33;;
9166;SDS011;4618;48.818;9.088;2023-09-18T10:03:08;2.77;;;1.17;;
9166;SDS011;4618;48.818;9.088;2023-09-18T10:05:35;3.17;;;1.00;;
9166;SDS011;4618;48.818;9.088;2023-09-18T10:08:06;3.07;;;1.20;;
9166;SDS011;4618;48.818;9.088;2023-09-18T10:10:35;5.27;;;1.20;;
9166;SDS011;4618;48.818;9.088;2023-09-18T10:13:08;3.43;;;1.30;;
9166;SDS011;4618;48.818;9.088;2023-09-18T10:15:35;3.07;;;1.10;;
9166;SDS011;4618;48.818;9.088;2023-09-18T10:18:03;4.50;;;1.37;;
9166;SDS011;4618;48.818;9.088;2023-09-18T10:20:32;4.03;;;1.00;;
9166;SDS011;4618;48.818;9.088;2023-09-18T10:23:00;4.80;;;1.50;;
9166;SDS011;4618;48.818;9.088;2023-09-18T10:25:30;5.13;;;1.60;;
9166;SDS011;4618;48.818;9.088;2023-09-18T10:27:57;4.63;;;1.40;;
9166;SDS011;4618;48.818;9.088;2023-09-18T10:30:26;1.43;;;1.27;;
9166;SDS011;4618;48.818;9.088;2023-09-18T10:32:53;4.30;;;1.60;;
9166;SDS011;4618;48.818;9.088;2023-09-18T10:35:20;3.37;;;1.20;;
9166;SDS011;4618;48.818;9.088;2023-09-18T10:37:47;3.70;;;1.50;;
9166;SDS011;4618;48.818;9.088;2023-09-18T10:40:16;3.90;;;1.00;;
9166;SDS011;4618;48.818;9.088;2023-09-18T10:42:42;3.20;;;1.60;;
9166;SDS011;4618;48.818;9.088;2023-09-18T10:45:09;5.60;;;2.00;;
9166;SDS011;4618;48.818;9.088;2023-09-18T10:47:39;2.53;;;1.40;;
9166;SDS011;4618;48.818;9.088;2023-09-18T10:50:06;4.93;;;1.50;;
9166;SDS011;4618;48.818;9.088;2023-09-18T10:52:39;3.33;;;1.23;;
9166;SDS011;4618;48.818;9.088;2023-09-18T10:55:10;2.13;;;1.20;;
9166;SDS011;4618;48.818;9.088;2023-09-18T10:57:36;1.63;;;1.20;;
9166;SDS011;4618;48.818;9.088;2023-09-18T11:00:04;4.00;;;1.10;;
9166;SDS011;4618;48.818;9.088;2023-09-18T11:02:38;1.83;;;1.00;;
9166;SDS011;4618;48.818;9.088;2023-09-18T11:05:05;2.20;;;0.80;;
9166;SDS011;4618;48.818;9.088;2023-09-18T11:07:31;2.53;;;1.00;;
9166;SDS011;4618;48.818;9.088;2023-09-18T11:09:57;3.77;;;1.30;;
9166;SDS011;4618;48.818;9.088;2023-09-18T11:12:41;2.77;;;1.10;;
9166;SDS011;4618;48.818;9.088;2023-09-18T11:15:07;3.27;;;1.37;;
9166;SDS011;4618;48.818;9.088;2023-09-18T11:17:36;3.77;;;1.27;;
9166;SDS011;4618;48.818;9.088;2023-09-18T11:20:23;2.47;;;1.40;;
9166;SDS011;4618;48.818;9.088;2023-09-18T11:28:00;3.17;;;1.20;;
9166;SDS011;4618;48.818;9.088;2023-09-18T11:30:27;3.23;;;1.30;;
9166;SDS011;4618;48.818;9.088;2023-09-18T11:32:53;2.37;;;0.90;;
9166;SDS011;4618;48.818;9.088;2023-09-18T11:35:20;1.97;;;0.90;;
9166;SDS011;4618;48.818;9.088;2023-09-18T11:37:47;2.97;;;0.80;;
9166;SDS011;4618;48.818;9.088;2023-09-18T11:40:26;4.07;;;1.27;;
9166;SDS011;4618;48.818;9.088;2023-09-18T11:43:26;2.83;;;1.03;;
9166;SDS011;4618;48.818;9.088;2023-09-18T11:45:50;3.83;;;1.00;;
9166;SDS011;4618;48.818;9.088;2023-09-18T11:48:18;2.63;;;1.00;;
9166;SDS011;4618;48.818;9.088;2023-09-18T11:50:44;4.23;;;1.10;;
9166;SDS011;4618;48.818;9.088;2023-09-18T11:53:11;2.70;;;1.00;;
9166;SDS011;4618;48.818;9.088;2023-09-18T11:55:40;4.07;;;0.87;;
9166;SDS011;4618;48.818;9.088;2023-09-18T11:58:06;1.63;;;0.80;;
9166;SDS011;4618;48.818;9.088;2023-09-18T12:00:34;2.43;;;0.93;;
9166;SDS011;4618;48.818;9.088;2023-09-18T12:03:14;2.37;;;1.10;;
9166;SDS011;4618;48.818;9.088;2023-09-18T12:05:50;3.73;;;1.00;;
9166;SDS011;4618;48.818;9.088;2023-09-18T12:08:16;3.63;;;0.80;;
9166;SDS011;4618;48.818;9.088;2023-09-18T12:10:43;1.30;;;1.00;;
9166;SDS011;4618;48.818;9.088;2023-09-18T12:13:09;2.17;;;0.73;;
9166;SDS011;4618;48.818;9.088;2023-09-18T12:15:36;1.57;;;1.00;;
9166;SDS011;4618;48.818;9.088;2023-09-18T12:18:05;1.93;;;0.80;;
9166;SDS011;4618;48.818;9.088;2023-09-18T12:20:31;1.73;;;0.87;;
9166;SDS011;4618;48.818;9.088;2023-09-18T12:22:59;2.23;;;1.10;;
9166;SDS011;4618;48.818;9.088;2023-09-18T12:25:27;2.73;;;1.10;;
9166;SDS011;4618;48.818;9.088;2023-09-18T12:27:53;2.40;;;0.90;;
9166;SDS011;4618;48.818;9.088;2023-09-18T12:30:19;2.30;;;1.03;;
9166;SDS011;4618;48.818;9.088;2023-09-18T12:32:47;4.10;;;0.80;;
9166;SDS011;4618;48.818;9.088;2023-09-18T12:35:13;1.73;;;0.80;;
9166;SDS011;4618;48.818;9.088;2023-09-18T12:37:40;4.10;;;1.10;;
9166;SDS011;4618;48.818;9.088;2023-09-18T12:40:06;1.67;;;0.80;;
9166;SDS011;4618;48.818;9.088;2023-09-18T12:42:45;1.10;;;0.90;;
9166;SDS011;4618;48.818;9.088;2023-09-18T12:45:11;3.27;;;2.63;;
9166;SDS011;4618;48.818;9.088;2023-09-18T12:47:37;4.65;;;4.20;;
9166;SDS011;4618;48.818;9.088;2023-09-18T12:50:04;4.07;;;1.10;;
9166;SDS011;4618;48.818;9.088;2023-09-18T12:52:31;2.28;;;0.70;;
9166;SDS011;4618;48.818;9.088;2023-09-18T12:54:58;1.30;;;0.70;;
9166;SDS011;4618;48.818;9.088;2023-09-18T12:57:27;2.72;;;0.85;;
9166;SDS011;4618;48.818;9.088;2023-09-18T12:59:53;0.65;;;0.60;;
9166;SDS011;4618;48.818;9.088;2023-09-18T13:02:20;1.63;;;0.70;;
9166;SDS011;4618;48.818;9.088;2023-09-18T13:04:52;1.80;;;0.88;;
9166;SDS011;4618;48.818;9.088;2023-09-18T13:07:19;2.22;;;0.80;;
9166;SDS011;4618;48.818;9.088;2023-09-18T13:10:04;2.43;;;0.90;;
9166;SDS011;4618;48.818;9.088;2023-09-18T13:15:06;2.37;;;0.80;;
9166;SDS011;4618;48.818;9.088;2023-09-18T13:17:42;1.43;;;0.60;;
9166;SDS011;4618;48.818;9.088;2023-09-18T13:20:20;1.40;;;0.60;;
9166;SDS011;4618;48.818;9.088;2023-09-18T13:22:49;3.10;;;0.60;;
9166;SDS011;4618;48.818;9.088;2023-09-18T13:25:25;1.27;;;0.65;;
9166;SDS011;4618;48.818;9.088;2023-09-18T13:27:52;2.80;;;0.90;;
9166;SDS011;4618;48.818;9.088;2023-09-18T13:30:18;1.03;;;0.60;;
9166;SDS011;4618;48.818;9.088;2023-09-18T13:32:47;1.53;;;0.70;;
9166;SDS011;4618;48.818;9.088;2023-09-18T13:35:13;2.10;;;0.60;;
9166;SDS011;4618;48.818;9.088;2023-09-18T13:37:39;2.50;;;0.70;;
9166;SDS011;4618;48.818;9.088;2023-09-18T13:40:05;0.80;;;0.60;;
9166;SDS011;4618;48.818;9.088;2023-09-18T13:42:33;1.05;;;0.50;;
9166;SDS011;4618;48.818;9.088;2023-09-18T13:44:59;1.85;;;0.80;;
9166;SDS011;4618;48.818;9.088;2023-09-18T13:47:26;1.50;;;0.60;;
9166;SDS011;4618;48.818;9.088;2023-09-18T13:49:52;1.17;;;0.70;;
9166;SDS011;4618;48.818;9.088;2023-09-18T13:52:21;1.95;;;0.80;;
9166;SDS011;4618;48.818;9.088;2023-09-18T13:54:47;3.83;;;0.80;;
9166;SDS011;4618;48.818;9.088;2023-09-18T13:57:16;1.70;;;0.50;;
9166;SDS011;4618;48.818;9.088;2023-09-18T13:59:43;1.58;;;0.57;;
9166;SDS011;4618;48.818;9.088;2023-09-18T14:02:09;1.63;;;0.60;;
9166;SDS011;4618;48.818;9.088;2023-09-18T14:04:36;0.67;;;0.60;;
9166;SDS011;4618;48.818;9.088;2023-09-18T14:07:02;0.93;;;0.82;;
9166;SDS011;4618;48.818;9.088;2023-09-18T14:09:28;2.33;;;0.98;;
9166;SDS011;4618;48.818;9.088;2023-09-18T14:11:54;1.42;;;0.60;;
9166;SDS011;4618;48.818;9.088;2023-09-18T14:14:20;2.83;;;0.70;;
9166;SDS011;4618;48.818;9.088;2023-09-18T14:16:46;2.20;;;0.80;;
9166;SDS011;4618;48.818;9.088;2023-09-18T14:19:12;1.67;;;0.70;;
9166;SDS011;4618;48.818;9.088;2023-09-18T14:21:38;1.23;;;0.50;;
9166;SDS011;4618;48.818;9.088;2023-09-18T14:24:05;2.03;;;0.70;;
9166;SDS011;4618;48.818;9.088;2023-09-18T14:26:30;1.85;;;0.80;;
9166;SDS011;4618;48.818;9.088;2023-09-18T14:28:56;2.08;;;0.80;;
9166;SDS011;4618;48.818;9.088;2023-09-18T14:31:22;1.40;;;0.50;;
9166;SDS011;4618;48.818;9.088;2023-09-18T14:33:47;3.40;;;0.77;;
9166;SDS011;4618;48.818;9.088;2023-09-18T14:36:13;1.50;;;0.50;;
9166;SDS011;4618;48.818;9.088;2023-09-18T14:38:39;1.55;;;0.60;;
9166;SDS011;4618;48.818;9.088;2023-09-18T14:41:06;2.75;;;0.70;;
9166;SDS011;4618;48.818;9.088;2023-09-18T14:43:32;1.42;;;0.77;;
9166;SDS011;4618;48.818;9.088;2023-09-18T14:45:57;2.30;;;0.68;;
9166;SDS011;4618;48.818;9.088;2023-09-18T14:48:23;2.88;;;0.60;;
9166;SDS011;4618;48.818;9.088;2023-09-18T14:50:55;1.63;;;0.60;;
9166;SDS011;4618;48.818;9.088;2023-09-18T14:53:22;2.10;;;0.68;;
9166;SDS011;4618;48.818;9.088;2023-09-18T14:55:48;2.05;;;0.70;;
9166;SDS011;4618;48.818;9.088;2023-09-18T14:58:14;3.08;;;0.50;;
9166;SDS011;4618;48.818;9.088;2023-09-18T15:00:39;1.45;;;0.60;;
9166;SDS011;4618;48.818;9.088;2023-09-18T15:03:05;0.77;;;0.60;;
9166;SDS011;4618;48.818;9.088;2023-09-18T15:05:30;1.35;;;0.60;;
9166;SDS011;4618;48.818;9.088;2023-09-18T15:07:56;1.92;;;0.65;;
9166;SDS011;4618;48.818;9.088;2023-09-18T15:10:21;2.83;;;0.60;;
9166;SDS011;4618;48.818;9.088;2023-09-18T15:12:47;0.98;;;0.63;;
9166;SDS011;4618;48.818;9.088;2023-09-18T15:15:13;0.98;;;0.60;;
9166;SDS011;4618;48.818;9.088;2023-09-18T15:17:38;2.13;;;0.73;;
9166;SDS011;4618;48.818;9.088;2023-09-18T15:20:05;2.38;;;0.60;;
9166;SDS011;4618;48.818;9.088;2023-09-18T15:22:31;1.65;;;0.75;;
9166;SDS011;4618;48.818;9.088;2023-09-18T15:24:56;1.13;;;0.60;;
9166;SDS011;4618;48.818;9.088;2023-09-18T15:27:22;0.95;;;0.50;;